createdAt,value
2022-11-01T00:02:06.055Z,42.83
2022-11-01T00:04:32.558Z,43.97
2022-11-01T00:06:59.002Z,32.08
2022-11-01T00:09:25.650Z,31.75
2022-11-01T00:11:52.218Z,33.67
2022-11-01T00:14:19.942Z,34.30
2022-11-01T00:16:46.390Z,37.67
2022-11-01T00:19:12.842Z,32.42
2022-11-01T00:21:39.425Z,36.28
2022-11-01T00:24:06.532Z,44.95
2022-11-01T00:26:33.085Z,53.88
2022-11-01T00:28:59.558Z,43.03
2022-11-01T00:31:26.363Z,39.72
2022-11-01T00:33:52.839Z,48.40
2022-11-01T00:36:19.339Z,43.53
2022-11-01T00:38:49.668Z,41.10
2022-11-01T00:41:16.067Z,31.70
2022-11-01T00:43:42.495Z,31.95
2022-11-01T00:46:08.913Z,50.55
2022-11-01T00:48:35.321Z,35.75
2022-11-01T00:51:01.745Z,45.47
2022-11-01T00:53:28.181Z,29.67
2022-11-01T00:56:01.379Z,31.30
2022-11-01T00:58:27.912Z,32.10
2022-11-01T01:00:54.444Z,36.55
2022-11-01T01:03:21.409Z,29.30
2022-11-01T01:05:52.918Z,34.28
2022-11-01T01:08:20.155Z,34.22
2022-11-01T01:10:47.080Z,33.42
2022-11-01T01:13:13.484Z,29.77
2022-11-01T01:15:40.031Z,24.95
2022-11-01T01:18:06.861Z,28.35
2022-11-01T01:20:33.820Z,42.00
2022-11-01T01:23:00.258Z,30.65
2022-11-01T01:25:26.731Z,26.33
2022-11-01T01:27:53.222Z,34.00
2022-11-01T01:30:19.632Z,28.13
2022-11-01T01:32:46.075Z,31.15
2022-11-01T01:35:12.599Z,34.05
2022-11-01T01:37:39.203Z,37.28
2022-11-01T01:40:07.231Z,33.65
2022-11-01T01:42:39.983Z,33.15
2022-11-01T01:45:30.527Z,30.13
2022-11-01T01:48:24.685Z,29.73
2022-11-01T01:50:57.238Z,25.77
2022-11-01T01:53:30.528Z,30.70
2022-11-01T01:56:21.671Z,33.63
2022-11-01T01:58:57.111Z,34.72
2022-11-01T02:01:23.672Z,28.88
2022-11-01T02:03:51.035Z,27.98
2022-11-01T02:06:20.269Z,34.42
2022-11-01T02:08:51.312Z,26.13
2022-11-01T02:11:19.426Z,44.60
2022-11-01T02:13:45.873Z,29.50
2022-11-01T02:16:33.565Z,29.67
2022-11-01T02:19:38.619Z,36.95
2022-11-01T02:23:01.893Z,27.50
2022-11-01T02:26:07.000Z,29.67
2022-11-01T02:29:00.439Z,28.40
2022-11-01T02:31:32.593Z,33.40
2022-11-01T02:34:07.098Z,29.05
2022-11-01T02:36:45.608Z,30.05
2022-11-01T02:39:20.821Z,23.70
2022-11-01T02:41:58.331Z,25.17
2022-11-01T02:44:27.674Z,26.40
2022-11-01T02:47:02.110Z,27.15
2022-11-01T02:49:37.169Z,25.38
2022-11-01T02:52:05.527Z,32.42
2022-11-01T02:54:33.492Z,30.10
2022-11-01T02:57:06.874Z,31.15
2022-11-01T02:59:45.815Z,24.77
2022-11-01T03:02:48.375Z,34.75
2022-11-01T03:05:21.558Z,34.65
2022-11-01T03:07:55.155Z,26.73
2022-11-01T03:10:27.044Z,32.65
2022-11-01T03:13:05.750Z,21.08
2022-11-01T03:15:39.854Z,26.08
2022-11-01T03:18:20.086Z,28.42
2022-11-01T03:20:56.331Z,27.73
2022-11-01T03:23:31.615Z,31.38
2022-11-01T03:26:01.985Z,31.30
2022-11-01T03:28:42.291Z,31.37
2022-11-01T03:31:16.329Z,24.52
2022-11-01T03:33:47.795Z,25.70
2022-11-01T03:36:20.087Z,24.02
2022-11-01T03:38:54.419Z,25.67
2022-11-01T03:41:23.160Z,28.13
2022-11-01T03:43:50.193Z,28.77
2022-11-01T03:46:16.786Z,26.60
2022-11-01T03:48:43.342Z,29.70
2022-11-01T03:51:09.730Z,24.90
2022-11-01T03:53:36.166Z,24.60
2022-11-01T03:56:02.682Z,27.60
2022-11-01T03:58:41.502Z,23.83
2022-11-01T04:01:16.851Z,34.05
2022-11-01T04:03:44.414Z,25.13
2022-11-01T04:06:11.216Z,28.55
2022-11-01T04:08:38.108Z,27.85
2022-11-01T04:11:04.655Z,22.25
2022-11-01T04:13:31.305Z,22.45
2022-11-01T04:16:16.830Z,34.45
2022-11-01T04:19:01.547Z,20.52
2022-11-01T04:21:30.567Z,27.58
2022-11-01T04:23:56.962Z,23.42
2022-11-01T04:26:24.268Z,22.92
2022-11-01T04:28:57.388Z,17.73
2022-11-01T04:31:28.623Z,22.40
2022-11-01T04:33:56.857Z,20.83
2022-11-01T04:36:24.054Z,21.00
2022-11-01T04:38:52.074Z,21.83
2022-11-01T04:41:19.639Z,23.75
2022-11-01T04:43:49.809Z,21.13
2022-11-01T04:46:16.453Z,23.92
2022-11-01T04:48:42.882Z,18.58
2022-11-01T04:51:10.234Z,17.77
2022-11-01T04:53:37.043Z,24.80
2022-11-01T04:56:05.302Z,19.80
2022-11-01T04:58:34.001Z,21.33
2022-11-01T05:01:05.332Z,19.52
2022-11-01T05:05:59.332Z,23.05
2022-11-01T05:08:25.748Z,23.20
2022-11-01T05:10:54.905Z,19.90
2022-11-01T05:13:21.657Z,18.73
2022-11-01T05:16:06.710Z,20.88
2022-11-01T05:18:34.577Z,19.58
2022-11-01T05:21:01.010Z,17.13
2022-11-01T05:23:27.471Z,20.65
2022-11-01T05:25:53.887Z,20.65
2022-11-01T05:28:20.365Z,17.98
2022-11-01T05:30:46.805Z,21.13
2022-11-01T05:33:13.245Z,16.75
2022-11-01T05:35:39.893Z,22.73
2022-11-01T05:38:06.495Z,16.20
2022-11-01T05:40:33.365Z,18.50
2022-11-01T05:43:00.247Z,18.80
2022-11-01T05:45:26.903Z,19.58
2022-11-01T05:47:53.344Z,18.90
2022-11-01T05:50:20.280Z,18.23
2022-11-01T05:52:46.804Z,21.48
2022-11-01T05:55:13.264Z,19.73
2022-11-01T05:57:39.769Z,16.45
2022-11-01T06:00:06.961Z,20.60
2022-11-01T06:02:34.363Z,21.70
2022-11-01T06:05:03.041Z,24.75
2022-11-01T06:07:29.826Z,19.55
2022-11-01T06:09:56.256Z,18.58
2022-11-01T06:12:24.445Z,21.77
2022-11-01T06:14:51.151Z,21.42
2022-11-01T06:17:17.645Z,17.90
2022-11-01T06:19:44.139Z,22.40
2022-11-01T06:22:10.573Z,17.65
2022-11-01T06:24:37.076Z,22.15
2022-11-01T06:27:04.139Z,27.65
2022-11-01T06:29:32.806Z,35.67
2022-11-01T06:31:59.220Z,29.02
2022-11-01T06:34:25.656Z,22.08
2022-11-01T06:36:52.057Z,26.63
2022-11-01T06:39:18.603Z,22.45
2022-11-01T06:41:45.060Z,22.98
2022-11-01T06:44:11.490Z,23.35
2022-11-01T06:46:37.975Z,22.88
2022-11-01T06:49:04.376Z,24.70
2022-11-01T06:51:30.783Z,19.77
2022-11-01T06:53:57.187Z,24.42
2022-11-01T06:56:23.636Z,21.85
2022-11-01T06:58:50.683Z,18.98
2022-11-01T07:01:22.184Z,22.05
2022-11-01T07:03:52.395Z,24.38
2022-11-01T07:06:19.637Z,21.52
2022-11-01T07:08:46.346Z,20.33
2022-11-01T07:11:12.824Z,28.13
2022-11-01T07:13:39.228Z,22.27
2022-11-01T07:16:05.903Z,20.73
2022-11-01T07:18:32.788Z,26.52
2022-11-01T07:21:02.974Z,26.92
2022-11-01T07:23:29.854Z,24.75
2022-11-01T07:25:56.405Z,28.17
2022-11-01T07:28:23.315Z,25.77
2022-11-01T07:30:53.529Z,29.05
2022-11-01T07:33:20.495Z,24.25
2022-11-01T07:35:47.766Z,29.17
2022-11-01T07:38:14.994Z,24.98
2022-11-01T07:40:41.645Z,25.75
2022-11-01T07:43:08.411Z,24.67
2022-11-01T07:45:35.655Z,20.48
2022-11-01T07:48:05.042Z,22.33
2022-11-01T07:50:33.282Z,24.40
2022-11-01T07:53:08.316Z,26.50
2022-11-01T07:55:35.679Z,24.40
2022-11-01T07:58:03.238Z,24.83
2022-11-01T08:00:31.645Z,25.38
2022-11-01T08:03:06.803Z,29.63
2022-11-01T08:05:33.498Z,22.75
2022-11-01T08:08:00.346Z,31.90
2022-11-01T08:10:28.303Z,28.48
2022-11-01T08:13:22.537Z,25.23
2022-11-01T08:15:50.589Z,28.83
2022-11-01T08:18:18.191Z,23.20
2022-11-01T08:20:44.720Z,22.73
2022-11-01T08:23:11.416Z,26.00
2022-11-01T08:25:38.004Z,29.60
2022-11-01T08:28:11.029Z,24.27
2022-11-01T08:30:39.083Z,25.88
2022-11-01T08:33:06.447Z,21.63
2022-11-01T08:35:34.324Z,23.58
2022-11-01T08:38:03.262Z,22.45
2022-11-01T08:40:30.479Z,22.48
2022-11-01T08:42:57.154Z,21.00
2022-11-01T08:45:24.433Z,27.10
2022-11-01T08:47:57.640Z,37.50
2022-11-01T08:50:24.108Z,24.55
2022-11-01T08:52:50.527Z,26.02
2022-11-01T08:55:17.060Z,23.23
2022-11-01T08:57:43.459Z,21.63
2022-11-01T09:00:10.449Z,18.05
2022-11-01T09:02:36.962Z,21.20
2022-11-01T09:05:06.071Z,25.88
2022-11-01T09:07:37.351Z,19.38
2022-11-01T09:12:31.207Z,30.50
2022-11-01T09:14:57.776Z,23.35
2022-11-01T09:17:24.232Z,25.65
2022-11-01T09:19:50.670Z,23.35
2022-11-01T09:22:17.263Z,24.90
2022-11-01T09:24:43.687Z,25.27
2022-11-01T09:27:10.162Z,19.70
2022-11-01T09:29:37.430Z,21.90
2022-11-01T09:32:03.856Z,16.48
2022-11-01T09:34:30.294Z,19.40
2022-11-01T09:36:56.773Z,22.20
2022-11-01T09:39:23.961Z,47.55
2022-11-01T09:41:56.948Z,24.90
2022-11-01T09:44:27.912Z,22.15
2022-11-01T09:47:03.961Z,21.92
2022-11-01T09:49:35.540Z,20.25
2022-11-01T09:52:02.167Z,24.13
2022-11-01T09:54:28.866Z,19.98
2022-11-01T09:57:14.866Z,20.63
2022-11-01T09:59:56.478Z,21.23
2022-11-01T10:02:41.674Z,28.52
2022-11-01T10:05:26.900Z,18.02
2022-11-01T10:08:04.735Z,19.35
2022-11-01T10:11:00.696Z,27.13
2022-11-01T10:14:05.722Z,21.65
2022-11-01T10:16:49.209Z,20.33
2022-11-01T10:19:18.814Z,20.73
2022-11-01T10:21:49.145Z,20.42
2022-11-01T10:24:24.813Z,20.87
2022-11-01T10:26:59.787Z,19.73
2022-11-01T10:30:08.600Z,17.42
2022-11-01T10:32:45.574Z,18.33
2022-11-01T10:35:21.115Z,21.25
2022-11-01T10:38:19.171Z,15.80
2022-11-01T10:41:06.681Z,28.73
2022-11-01T10:43:38.874Z,21.35
2022-11-01T10:46:08.980Z,16.38
2022-11-01T10:48:44.813Z,22.55
2022-11-01T10:51:15.068Z,17.83
2022-11-01T10:53:47.418Z,17.57
2022-11-01T10:56:24.043Z,16.35
2022-11-01T10:59:05.507Z,18.73
2022-11-01T11:01:39.066Z,18.20
2022-11-01T11:04:11.291Z,19.00
2022-11-01T11:06:40.212Z,16.88
2022-11-01T11:09:07.381Z,15.73
2022-11-01T11:11:45.400Z,15.38
2022-11-01T11:14:12.806Z,23.30
2022-11-01T11:16:45.752Z,19.70
2022-11-01T11:19:35.454Z,21.20
2022-11-01T11:22:07.492Z,18.00
2022-11-01T11:24:38.687Z,19.30
2022-11-01T11:29:50.342Z,21.27
2022-11-01T11:32:20.616Z,15.15
2022-11-01T11:35:03.038Z,21.10
2022-11-01T11:37:33.541Z,15.90
2022-11-01T11:39:59.962Z,16.75
2022-11-01T11:42:26.808Z,13.85
2022-11-01T11:45:18.525Z,17.85
2022-11-01T11:47:47.861Z,18.15
2022-11-01T11:50:20.489Z,16.52
2022-11-01T11:53:13.265Z,19.42
2022-11-01T11:55:48.889Z,17.50
2022-11-01T11:58:40.203Z,17.67
2022-11-01T12:03:58.091Z,22.90
2022-11-01T12:06:27.503Z,18.65
2022-11-01T12:08:56.836Z,17.10
2022-11-01T12:11:25.179Z,16.45
2022-11-01T12:14:02.502Z,16.35
2022-11-01T12:16:29.499Z,16.10
2022-11-01T12:18:58.192Z,14.73
2022-11-01T12:21:34.493Z,18.98
2022-11-01T12:24:21.527Z,19.63
2022-11-01T12:26:51.396Z,16.95
2022-11-01T12:29:24.409Z,21.52
2022-11-01T12:31:52.168Z,19.00
2022-11-01T12:34:26.536Z,16.67
2022-11-01T12:37:00.555Z,21.30
2022-11-01T12:39:40.201Z,24.92
2022-11-01T12:42:14.725Z,23.02
2022-11-01T12:44:50.642Z,19.42
2022-11-01T12:47:42.384Z,18.55
2022-11-01T12:50:22.726Z,19.73
2022-11-01T12:53:03.362Z,37.80
2022-11-01T12:55:35.172Z,19.80
2022-11-01T12:58:03.506Z,22.35
2022-11-01T13:00:54.920Z,19.55
2022-11-01T13:03:37.849Z,24.15
2022-11-01T13:06:42.443Z,22.02
2022-11-01T13:09:21.751Z,44.58
2022-11-01T13:12:17.255Z,23.02
2022-11-01T13:15:09.463Z,26.67
2022-11-01T13:18:00.830Z,24.95
2022-11-01T13:20:33.369Z,25.92
2022-11-01T13:23:06.404Z,28.63
2022-11-01T13:25:52.405Z,29.85
2022-11-01T13:28:29.615Z,25.90
2022-11-01T13:31:18.388Z,34.58
2022-11-01T13:34:03.967Z,28.73
2022-11-01T13:36:33.256Z,53.00
2022-11-01T13:39:13.844Z,30.67
2022-11-01T13:41:53.723Z,24.10
2022-11-01T13:44:27.462Z,26.67
2022-11-01T13:47:08.263Z,22.80
2022-11-01T13:49:59.693Z,30.88
2022-11-01T13:52:29.767Z,23.92
2022-11-01T13:55:21.078Z,27.20
2022-11-01T14:00:38.797Z,23.95
2022-11-01T14:03:23.677Z,26.67
2022-11-01T14:06:09.357Z,23.80
2022-11-01T14:08:43.327Z,25.10
2022-11-01T14:11:38.973Z,25.17
2022-11-01T14:14:31.125Z,23.48
2022-11-01T14:17:15.772Z,26.60
2022-11-01T14:19:43.114Z,26.08
2022-11-01T14:22:30.994Z,29.02
2022-11-01T14:25:00.000Z,25.17
2022-11-01T14:27:29.724Z,24.00
2022-11-01T14:29:56.680Z,19.60
2022-11-01T14:32:26.698Z,15.93
2022-11-01T14:35:11.959Z,21.30
2022-11-01T14:37:47.515Z,24.25
2022-11-01T14:40:31.723Z,11.70
2022-11-01T14:43:11.086Z,16.23
2022-11-01T14:45:42.016Z,16.48
2022-11-01T14:48:24.111Z,12.80
2022-11-01T14:50:59.843Z,12.13
2022-11-01T14:53:32.415Z,11.85
2022-11-01T14:56:15.200Z,15.15
2022-11-01T14:58:43.648Z,16.17
2022-11-01T15:01:17.212Z,22.85
2022-11-01T15:03:58.774Z,14.90
2022-11-01T15:06:30.986Z,14.23
2022-11-01T15:09:04.108Z,19.60
2022-11-01T15:11:32.954Z,18.90
2022-11-01T15:14:02.980Z,13.82
2022-11-01T15:16:30.099Z,19.05
2022-11-01T15:19:02.302Z,14.73
2022-11-01T15:21:31.435Z,17.33
2022-11-01T15:23:59.156Z,15.13
2022-11-01T15:26:29.747Z,17.17
2022-11-01T15:28:59.587Z,17.73
2022-11-01T15:31:26.243Z,18.73
2022-11-01T15:33:54.042Z,15.63
2022-11-01T15:36:26.823Z,15.60
2022-11-01T15:38:56.309Z,16.33
2022-11-01T15:41:27.661Z,20.20
2022-11-01T15:43:56.892Z,18.52
2022-11-01T15:46:39.200Z,22.25
2022-11-01T15:49:09.507Z,20.83
2022-11-01T15:51:41.752Z,30.33
2022-11-01T15:54:31.877Z,19.25
2022-11-01T15:57:02.950Z,25.13
2022-11-01T16:00:18.798Z,25.77
2022-11-01T16:02:49.772Z,21.92
2022-11-01T16:05:19.282Z,21.38
2022-11-01T16:07:46.939Z,25.65
2022-11-01T16:10:22.989Z,31.23
2022-11-01T16:12:50.975Z,27.65
2022-11-01T16:15:27.254Z,24.65
2022-11-01T16:17:57.299Z,47.95
2022-11-01T16:20:31.915Z,60.70
2022-11-01T16:23:04.525Z,34.80
2022-11-01T16:25:32.965Z,28.15
2022-11-01T16:28:00.098Z,30.73
2022-11-01T16:30:45.265Z,26.33
2022-11-01T16:33:20.771Z,26.95
2022-11-01T16:35:49.507Z,35.08
2022-11-01T16:38:26.700Z,40.13
2022-11-01T16:41:01.780Z,33.95
2022-11-01T16:43:31.679Z,28.15
2022-11-01T16:45:58.933Z,26.50
2022-11-01T16:48:27.417Z,34.35
2022-11-01T16:50:55.442Z,37.67
2022-11-01T16:53:24.646Z,52.35
2022-11-01T16:55:57.802Z,34.85
2022-11-01T16:58:29.236Z,25.02
2022-11-01T17:02:08.216Z,30.48
2022-11-01T17:04:34.895Z,28.90
2022-11-01T17:07:01.314Z,27.33
2022-11-01T17:09:30.715Z,29.42
2022-11-01T17:11:57.190Z,28.60
2022-11-01T17:14:23.893Z,28.33
2022-11-01T17:16:52.453Z,29.13
2022-11-01T17:19:28.511Z,34.42
2022-11-01T17:21:56.010Z,28.13
2022-11-01T17:24:25.545Z,27.98
2022-11-01T17:26:54.133Z,34.35
2022-11-01T17:29:20.533Z,30.15
2022-11-01T17:31:46.945Z,32.70
2022-11-01T17:34:13.457Z,36.33
2022-11-01T17:36:46.259Z,38.97
2022-11-01T17:39:12.831Z,29.08
2022-11-01T17:41:39.527Z,33.75
2022-11-01T17:44:06.212Z,31.88
2022-11-01T17:46:32.872Z,32.05
2022-11-01T17:48:59.315Z,31.83
2022-11-01T17:51:25.759Z,32.30
2022-11-01T17:53:53.560Z,33.78
2022-11-01T17:56:20.076Z,40.92
2022-11-01T17:58:52.123Z,49.67
2022-11-01T18:01:20.748Z,56.10
2022-11-01T18:03:47.675Z,60.85
2022-11-01T18:06:14.265Z,61.03
2022-11-01T18:08:46.794Z,36.05
2022-11-01T18:11:34.848Z,33.10
2022-11-01T18:14:26.292Z,28.67
2022-11-01T18:19:31.414Z,29.45
2022-11-01T18:22:34.835Z,36.88
2022-11-01T18:25:15.391Z,35.55
2022-11-01T18:27:41.779Z,35.83
2022-11-01T18:30:14.199Z,32.95
2022-11-01T18:32:48.970Z,31.33
2022-11-01T18:35:30.624Z,35.03
2022-11-01T18:38:26.625Z,33.83
2022-11-01T18:41:01.399Z,34.25
2022-11-01T18:43:37.582Z,34.25
2022-11-01T18:46:30.697Z,38.55
2022-11-01T18:49:00.792Z,28.35
2022-11-01T18:51:30.112Z,30.93
2022-11-01T18:54:11.252Z,36.78
2022-11-01T18:56:42.042Z,30.50
2022-11-01T18:59:15.023Z,35.17
2022-11-01T19:01:41.662Z,33.22
2022-11-01T19:04:27.714Z,35.00
2022-11-01T19:07:08.639Z,36.95
2022-11-01T19:09:37.876Z,32.28
2022-11-01T19:12:14.121Z,34.35
2022-11-01T19:14:41.473Z,31.35
2022-11-01T19:17:37.693Z,35.15
2022-11-01T19:20:20.632Z,31.38
2022-11-01T19:22:47.431Z,33.08
2022-11-01T19:25:20.492Z,33.05
2022-11-01T19:27:51.990Z,33.03
2022-11-01T19:30:29.799Z,36.50
2022-11-01T19:33:01.007Z,37.42
2022-11-01T19:37:55.528Z,41.42
2022-11-01T19:40:31.119Z,33.88
2022-11-01T19:43:03.023Z,39.05
2022-11-01T19:45:32.561Z,34.90
2022-11-01T19:48:01.950Z,38.33
2022-11-01T19:50:42.897Z,45.80
2022-11-01T19:53:29.102Z,35.97
2022-11-01T19:56:03.209Z,36.78
2022-11-01T19:58:46.717Z,34.58
2022-11-01T20:01:24.001Z,34.97
2022-11-01T20:03:55.376Z,34.47
2022-11-01T20:06:29.646Z,36.38
2022-11-01T20:09:04.357Z,33.10
2022-11-01T20:11:32.467Z,41.35
2022-11-01T20:13:59.006Z,31.98
2022-11-01T20:16:25.484Z,32.92
2022-11-01T20:18:51.992Z,30.63
2022-11-01T20:21:18.508Z,35.90
2022-11-01T20:23:44.938Z,34.55
2022-11-01T20:26:12.176Z,37.25
2022-11-01T20:28:38.887Z,40.78
2022-11-01T20:31:05.587Z,37.35
2022-11-01T20:33:32.018Z,38.92
2022-11-01T20:35:58.760Z,62.53
2022-11-01T20:38:25.361Z,48.20
2022-11-01T20:40:51.999Z,64.95
2022-11-01T20:43:18.477Z,72.43
2022-11-01T20:45:44.928Z,67.43
2022-11-01T20:48:11.360Z,78.18
2022-11-01T20:50:38.044Z,98.43
2022-11-01T20:53:06.092Z,95.55
2022-11-01T20:55:33.788Z,56.47
2022-11-01T20:58:00.567Z,139.90
2022-11-01T21:00:27.730Z,120.18
2022-11-01T21:02:57.554Z,56.25
2022-11-01T21:05:27.026Z,80.85
2022-11-01T21:08:00.063Z,166.02
2022-11-01T21:10:38.296Z,120.20
2022-11-01T21:13:21.544Z,80.60
2022-11-01T21:15:48.454Z,77.72
2022-11-01T21:18:14.831Z,98.95
2022-11-01T21:20:44.435Z,76.40
2022-11-01T21:23:25.768Z,116.72
2022-11-01T21:28:42.823Z,115.72
2022-11-01T21:31:15.210Z,68.93
2022-11-01T21:33:43.917Z,69.25
2022-11-01T21:36:35.026Z,67.93
2022-11-01T21:39:13.988Z,66.97
2022-11-01T21:41:59.156Z,47.40
2022-11-01T21:44:30.191Z,73.70
2022-11-01T21:47:08.689Z,81.82
2022-11-01T21:49:36.578Z,54.47
2022-11-01T21:52:05.359Z,80.50
2022-11-01T21:54:36.884Z,54.38
2022-11-01T21:57:05.828Z,53.35
2022-11-01T21:59:34.266Z,88.32
2022-11-01T22:02:01.466Z,64.28
2022-11-01T22:04:32.482Z,67.55
2022-11-01T22:07:04.841Z,71.28
2022-11-01T22:09:32.338Z,92.57
2022-11-01T22:11:59.193Z,62.67
2022-11-01T22:14:25.729Z,57.65
2022-11-01T22:16:52.162Z,73.80
2022-11-01T22:19:18.555Z,88.80
2022-11-01T22:24:12.331Z,57.08
2022-11-01T22:26:38.720Z,52.33
2022-11-01T22:29:05.949Z,58.17
2022-11-01T22:31:32.354Z,64.25
2022-11-01T22:33:58.981Z,52.85
2022-11-01T22:36:27.990Z,48.45
2022-11-01T22:38:56.796Z,52.63
2022-11-01T22:41:33.725Z,64.93
2022-11-01T22:44:13.559Z,42.20
2022-11-01T22:46:58.657Z,89.90
2022-11-01T22:49:37.461Z,126.47
2022-11-01T22:52:29.506Z,37.42
2022-11-01T22:55:21.991Z,58.03
2022-11-01T22:58:14.435Z,57.72
2022-11-01T23:00:40.859Z,53.85
2022-11-01T23:03:09.983Z,54.97
2022-11-01T23:05:36.778Z,55.63
2022-11-01T23:08:25.445Z,62.65
2022-11-01T23:10:52.198Z,60.33
2022-11-01T23:13:50.063Z,53.85
2022-11-01T23:16:34.883Z,57.97
2022-11-01T23:19:03.503Z,80.43
2022-11-01T23:21:30.181Z,45.53
2022-11-01T23:23:56.699Z,50.90
2022-11-01T23:26:23.844Z,71.40
2022-11-01T23:28:53.715Z,82.57
2022-11-01T23:31:20.936Z,87.82
2022-11-01T23:37:00.989Z,49.47
2022-11-01T23:40:13.249Z,41.40
2022-11-01T23:42:39.776Z,46.35
2022-11-01T23:45:19.602Z,82.65
2022-11-01T23:47:46.507Z,89.97
2022-11-01T23:50:20.404Z,40.50
2022-11-01T23:52:50.195Z,100.68
2022-11-01T23:55:24.450Z,69.50
2022-11-01T23:57:56.254Z,68.65
